Kinderhook, Illinois
Current Conditions -  °F | °C
As of 2:55 PM on Tuesday 21 Oct 2014 (Local Time) from KHAE Reporting Station
Haze Haze  
Wind Chill: 68°   Ceiling: Unl
Heat Index: 68°   Visibility: 2.5mi
Dew Point: 36°   Wind: 7mph
Humidity: 30%   Direction: 10°N
Pressure: 30.13"   Gusts: NA
Location:  39.7°N, 91.15°W
Report Text: KHAE 211955Z AUTO 01006KT 2 1/2SM HZ CLR 20/02 A3013 RMK AO2 VIS 1V5
Loading
Personal Weather Stations






























Interactive Weather Map
Tropical Storm Tracking
New forecast layout! Learn more

10-Day Weather Forecast

Advertisements
Track Severe Weather on mobile